createdAt,value
2019-06-26T00:02:30.909Z,62.67
2019-06-26T00:05:03.274Z,62.82
2019-06-26T00:07:35.495Z,62.72
2019-06-26T00:10:07.708Z,62.62
2019-06-26T00:12:39.907Z,62.58
2019-06-26T00:15:14.331Z,62.69
2019-06-26T00:17:46.566Z,62.87
2019-06-26T00:20:19.120Z,63.24
2019-06-26T00:22:51.402Z,63.34
2019-06-26T00:25:23.666Z,63.19
2019-06-26T00:27:55.967Z,63.18
2019-06-26T00:30:28.345Z,63.39
2019-06-26T00:33:00.612Z,63.61
2019-06-26T00:35:32.898Z,63.51
2019-06-26T00:38:05.109Z,63.41
2019-06-26T00:40:37.424Z,63.46
2019-06-26T00:43:09.720Z,63.56
2019-06-26T00:45:42.040Z,63.79
2019-06-26T00:48:14.344Z,64.05
2019-06-26T00:50:46.540Z,64.06
2019-06-26T00:53:18.715Z,64.13
2019-06-26T00:55:50.911Z,64.27
2019-06-26T00:58:23.307Z,64.36
2019-06-26T01:00:55.559Z,64.15
2019-06-26T01:03:27.807Z,64.10
2019-06-26T01:06:00.137Z,64.06
2019-06-26T01:08:32.739Z,64.09
2019-06-26T01:11:05.886Z,64.22
2019-06-26T01:13:38.442Z,64.29
2019-06-26T01:16:10.716Z,64.40
2019-06-26T01:18:43.017Z,64.41
2019-06-26T01:21:15.363Z,64.50
2019-06-26T01:23:47.793Z,64.58
2019-06-26T01:26:20.186Z,64.53
2019-06-26T01:28:52.509Z,64.41
2019-06-26T01:31:24.808Z,64.42
2019-06-26T01:33:57.099Z,64.60
2019-06-26T01:36:34.253Z,64.82
2019-06-26T01:39:07.172Z,64.89
2019-06-26T01:41:39.366Z,64.84
2019-06-26T01:44:15.383Z,64.99
2019-06-26T01:46:47.999Z,65.05
2019-06-26T01:49:20.296Z,65.11
2019-06-26T01:51:52.473Z,65.31
2019-06-26T01:54:24.694Z,65.43
2019-06-26T01:56:56.920Z,65.41
2019-06-26T01:59:34.331Z,65.45
2019-06-26T02:02:11.566Z,65.47
2019-06-26T02:04:49.140Z,65.47
2019-06-26T02:07:26.445Z,65.52
2019-06-26T02:10:03.676Z,65.51
2019-06-26T02:12:40.786Z,65.52
2019-06-26T02:15:17.148Z,65.60
2019-06-26T02:17:54.431Z,65.86
2019-06-26T02:20:31.578Z,65.97
2019-06-26T02:23:08.796Z,65.94
2019-06-26T02:25:46.124Z,65.78
2019-06-26T02:28:23.698Z,65.79
2019-06-26T02:31:00.803Z,65.77
2019-06-26T02:33:38.045Z,65.88
2019-06-26T02:36:15.454Z,65.78
2019-06-26T02:38:52.637Z,65.63
2019-06-26T02:41:29.815Z,65.66
2019-06-26T02:44:07.098Z,65.95
2019-06-26T02:46:44.293Z,66.27
2019-06-26T02:49:21.674Z,66.48
2019-06-26T02:51:58.752Z,66.76
2019-06-26T02:54:31.158Z,66.92
2019-06-26T02:57:03.396Z,66.90
2019-06-26T02:59:35.733Z,66.67
2019-06-26T03:02:07.935Z,66.61
2019-06-26T03:04:40.197Z,66.70
2019-06-26T03:07:12.431Z,66.78
2019-06-26T03:09:44.750Z,66.86
2019-06-26T03:12:17.392Z,66.80
2019-06-26T03:14:49.716Z,66.69
2019-06-26T03:17:21.949Z,66.65
2019-06-26T03:19:54.394Z,66.65
2019-06-26T03:22:26.682Z,66.58
2019-06-26T03:24:59.028Z,66.78
2019-06-26T03:27:31.324Z,67.24
2019-06-26T03:30:05.751Z,67.60
2019-06-26T03:32:38.069Z,67.63
2019-06-26T03:35:10.355Z,67.68
2019-06-26T03:37:42.670Z,67.69
2019-06-26T03:40:15.030Z,67.46
2019-06-26T03:42:47.279Z,67.09
2019-06-26T03:45:25.836Z,66.94
2019-06-26T03:47:58.809Z,66.97
2019-06-26T03:50:31.143Z,67.04
2019-06-26T03:53:03.386Z,67.15
2019-06-26T03:55:35.649Z,67.05
2019-06-26T03:58:07.981Z,66.92
2019-06-26T04:00:42.071Z,66.84
2019-06-26T04:03:14.321Z,66.74
2019-06-26T04:05:51.552Z,66.61
2019-06-26T04:08:28.780Z,66.86
2019-06-26T04:11:06.003Z,67.37
2019-06-26T04:13:43.291Z,67.67
2019-06-26T04:16:20.708Z,67.85
2019-06-26T04:18:53.007Z,68.07
2019-06-26T04:21:25.234Z,68.06
2019-06-26T04:23:57.458Z,68.01
2019-06-26T04:26:29.765Z,67.98
2019-06-26T04:29:01.991Z,68.11
2019-06-26T04:31:34.329Z,68.06
2019-06-26T04:34:06.592Z,68.04
2019-06-26T04:36:38.905Z,68.08
2019-06-26T04:39:11.128Z,67.98
2019-06-26T04:41:43.403Z,67.83
2019-06-26T04:44:15.818Z,67.83
2019-06-26T04:46:48.132Z,67.73
2019-06-26T04:49:20.368Z,67.75
2019-06-26T04:51:52.574Z,67.79
2019-06-26T04:54:24.782Z,67.70
2019-06-26T04:57:02.823Z,67.72
2019-06-26T04:59:47.508Z,67.69
2019-06-26T05:02:20.737Z,67.75
2019-06-26T05:04:53.514Z,67.76
2019-06-26T05:07:25.776Z,67.76
2019-06-26T05:09:58.191Z,67.65
2019-06-26T05:12:30.470Z,67.45
2019-06-26T05:15:06.011Z,67.27
2019-06-26T05:17:38.326Z,67.29
2019-06-26T05:20:10.632Z,67.72
2019-06-26T05:22:42.863Z,67.99
2019-06-26T05:25:15.798Z,68.21
2019-06-26T05:27:48.085Z,68.16
2019-06-26T05:30:20.330Z,68.26
2019-06-26T05:32:52.704Z,68.15
2019-06-26T05:35:25.040Z,68.23
2019-06-26T05:37:57.353Z,68.33
2019-06-26T05:40:29.579Z,68.33
2019-06-26T05:43:01.823Z,68.51
2019-06-26T05:45:34.018Z,68.36
2019-06-26T05:48:06.273Z,68.50
2019-06-26T05:50:38.423Z,68.45
2019-06-26T05:53:11.136Z,68.38
2019-06-26T05:55:43.503Z,68.12
2019-06-26T05:58:16.059Z,68.25
2019-06-26T06:00:48.924Z,68.20
2019-06-26T06:03:21.776Z,68.13
2019-06-26T06:05:54.495Z,67.68
2019-06-26T06:08:27.014Z,67.63
2019-06-26T06:10:59.283Z,67.24
2019-06-26T06:13:35.556Z,65.54
2019-06-26T06:16:08.036Z,65.45
2019-06-26T06:18:43.417Z,64.58
2019-06-26T06:21:15.597Z,64.25
2019-06-26T06:23:47.896Z,64.13
2019-06-26T06:26:20.105Z,63.43
2019-06-26T06:28:52.472Z,63.31
2019-06-26T06:31:24.672Z,63.42
2019-06-26T06:34:01.104Z,62.98
2019-06-26T06:36:33.612Z,63.02
2019-06-26T06:39:07.439Z,62.94
2019-06-26T06:41:43.222Z,62.87
2019-06-26T06:44:15.893Z,62.57
2019-06-26T06:47:02.721Z,62.55
2019-06-26T06:49:35.874Z,61.76
2019-06-26T06:52:08.114Z,61.89
2019-06-26T06:54:41.128Z,62.40
2019-06-26T06:57:13.379Z,61.99
2019-06-26T06:59:48.103Z,62.15
2019-06-26T07:02:21.352Z,62.24
2019-06-26T07:04:53.818Z,62.20
2019-06-26T07:07:26.288Z,61.76
2019-06-26T07:09:58.559Z,61.81
2019-06-26T07:12:30.875Z,61.61
2019-06-26T07:15:05.775Z,61.52
2019-06-26T07:17:37.969Z,61.54
2019-06-26T07:20:11.263Z,61.51
2019-06-26T07:22:43.421Z,61.27
2019-06-26T07:25:15.707Z,61.43
2019-06-26T07:27:47.874Z,61.19
2019-06-26T07:30:20.141Z,60.86
2019-06-26T07:32:53.128Z,60.72
2019-06-26T07:35:25.454Z,60.71
2019-06-26T07:38:00.061Z,60.46
2019-06-26T07:40:32.682Z,59.98
2019-06-26T07:43:05.114Z,60.13
2019-06-26T07:45:37.319Z,59.70
2019-06-26T07:48:09.567Z,59.83
2019-06-26T07:50:41.831Z,60.01
2019-06-26T07:53:14.056Z,60.13
2019-06-26T07:55:46.403Z,59.47
2019-06-26T07:58:18.688Z,59.39
2019-06-26T08:00:51.034Z,59.57
2019-06-26T08:03:23.320Z,59.45
2019-06-26T08:05:55.838Z,59.38
2019-06-26T08:08:35.372Z,59.77
2019-06-26T08:11:19.910Z,59.78
2019-06-26T08:13:52.987Z,59.77
2019-06-26T08:16:25.315Z,59.29
2019-06-26T08:18:57.580Z,58.81
2019-06-26T08:21:30.715Z,58.32
2019-06-26T08:24:07.273Z,58.74
2019-06-26T08:26:39.496Z,58.79
2019-06-26T08:29:11.802Z,58.07
2019-06-26T08:31:44.043Z,58.09
2019-06-26T08:34:16.248Z,58.44
2019-06-26T08:36:48.508Z,58.32
2019-06-26T08:39:20.717Z,57.84
2019-06-26T08:41:53.237Z,57.24
2019-06-26T08:44:25.516Z,56.38
2019-06-26T08:46:57.725Z,54.55
2019-06-26T08:49:30.006Z,54.53
2019-06-26T08:52:02.334Z,53.83
2019-06-26T08:54:34.860Z,54.03
2019-06-26T08:57:07.111Z,54.69
2019-06-26T08:59:39.286Z,54.11
2019-06-26T09:02:26.235Z,53.44
2019-06-26T09:05:00.468Z,53.12
2019-06-26T09:07:32.796Z,53.38
2019-06-26T09:10:05.889Z,53.03
2019-06-26T09:12:38.073Z,52.85
2019-06-26T09:15:10.319Z,53.29
2019-06-26T09:17:44.507Z,53.11
2019-06-26T09:20:37.549Z,52.76
2019-06-26T09:23:09.726Z,52.21
2019-06-26T09:25:41.943Z,52.10
2019-06-26T09:28:14.122Z,51.78
2019-06-26T09:30:46.455Z,51.07
2019-06-26T09:33:18.731Z,50.60
2019-06-26T09:35:50.942Z,50.64
2019-06-26T09:38:23.327Z,50.68
2019-06-26T09:40:56.001Z,50.19
2019-06-26T09:43:28.268Z,51.30
2019-06-26T09:46:00.465Z,50.78
2019-06-26T09:48:33.677Z,50.24
2019-06-26T09:51:06.011Z,48.99
2019-06-26T09:53:47.231Z,48.82
2019-06-26T09:56:20.329Z,49.81
2019-06-26T09:58:52.573Z,48.46
2019-06-26T10:01:24.937Z,48.78
2019-06-26T10:03:57.284Z,48.38
2019-06-26T10:06:29.539Z,46.67
2019-06-26T10:09:01.838Z,46.62
2019-06-26T10:11:34.063Z,44.99
2019-06-26T10:14:06.514Z,44.82
2019-06-26T10:16:38.840Z,43.38
2019-06-26T10:19:22.645Z,42.98
2019-06-26T10:21:55.458Z,42.51
2019-06-26T10:24:27.907Z,42.35
2019-06-26T10:27:00.203Z,42.78
2019-06-26T10:29:32.579Z,42.10
2019-06-26T10:32:05.119Z,42.26
2019-06-26T10:34:37.396Z,42.29
2019-06-26T10:37:09.955Z,42.22
2019-06-26T10:39:42.391Z,42.00
2019-06-26T10:42:14.616Z,41.94
2019-06-26T10:44:47.319Z,41.87
2019-06-26T10:47:19.532Z,42.29
2019-06-26T10:49:52.218Z,42.58
2019-06-26T10:52:24.410Z,42.83
2019-06-26T10:54:56.670Z,42.49
2019-06-26T10:57:28.908Z,40.67
2019-06-26T11:00:01.150Z,40.75
2019-06-26T11:02:35.545Z,38.21
2019-06-26T11:05:07.963Z,37.52
2019-06-26T11:07:40.184Z,38.32
2019-06-26T11:10:13.157Z,38.08
2019-06-26T11:12:48.826Z,37.61
2019-06-26T11:15:21.356Z,38.33
2019-06-26T11:17:53.675Z,38.91
2019-06-26T11:20:26.704Z,38.55
2019-06-26T11:22:58.944Z,40.29
2019-06-26T11:25:31.195Z,39.80
2019-06-26T11:28:03.428Z,39.96
2019-06-26T11:30:35.787Z,39.34
2019-06-26T11:33:08.378Z,40.09
2019-06-26T11:35:39.915Z,38.57
2019-06-26T11:38:12.230Z,39.37
2019-06-26T11:40:44.570Z,40.33
2019-06-26T11:43:18.056Z,39.81
2019-06-26T11:45:54.941Z,38.92
2019-06-26T11:48:28.889Z,36.91
2019-06-26T11:51:01.123Z,36.52
2019-06-26T11:53:33.368Z,36.90
2019-06-26T11:56:05.637Z,37.35
2019-06-26T11:58:38.815Z,37.82
2019-06-26T12:01:18.450Z,35.80
2019-06-26T12:04:17.491Z,35.49
2019-06-26T12:06:54.011Z,34.48
2019-06-26T12:09:27.567Z,34.39
2019-06-26T12:11:59.965Z,34.86
2019-06-26T12:14:32.575Z,34.89
2019-06-26T12:17:04.813Z,34.47
2019-06-26T12:19:38.029Z,34.46
2019-06-26T12:22:11.366Z,33.74
2019-06-26T12:24:44.152Z,33.85
2019-06-26T12:27:16.487Z,32.69
2019-06-26T12:29:49.108Z,32.96
2019-06-26T12:32:21.403Z,33.96
2019-06-26T12:34:53.725Z,33.23
2019-06-26T12:37:37.058Z,34.06
2019-06-26T12:40:10.670Z,33.66
2019-06-26T12:42:45.943Z,33.38
2019-06-26T12:45:17.847Z,34.23
2019-06-26T12:47:53.367Z,32.59
2019-06-26T12:50:35.449Z,32.91
2019-06-26T12:53:08.495Z,33.25
2019-06-26T12:55:40.723Z,32.04
2019-06-26T12:58:16.282Z,32.42
2019-06-26T13:00:52.404Z,32.96
2019-06-26T13:03:24.663Z,33.88
2019-06-26T13:05:57.374Z,34.80
2019-06-26T13:08:29.890Z,35.62
2019-06-26T13:11:02.172Z,34.18
2019-06-26T13:13:34.914Z,34.58
2019-06-26T13:16:07.577Z,33.97
2019-06-26T13:18:40.336Z,34.73
2019-06-26T13:21:18.725Z,33.34
2019-06-26T13:23:51.062Z,33.56
2019-06-26T13:26:24.295Z,33.02
2019-06-26T13:28:59.034Z,32.92
2019-06-26T13:31:31.765Z,33.62
2019-06-26T13:34:04.935Z,33.67
2019-06-26T13:36:37.245Z,34.06
2019-06-26T13:39:09.579Z,33.91
2019-06-26T13:41:50.674Z,32.66
2019-06-26T13:44:23.786Z,32.15
2019-06-26T13:46:56.017Z,32.63
2019-06-26T13:49:28.289Z,32.62
2019-06-26T13:52:00.548Z,33.79
2019-06-26T13:54:32.768Z,33.79
2019-06-26T13:57:05.750Z,33.89
2019-06-26T13:59:38.102Z,33.79
2019-06-26T14:02:10.409Z,33.01
2019-06-26T14:04:42.739Z,33.00
2019-06-26T14:07:15.035Z,33.07
2019-06-26T14:09:47.446Z,34.10
2019-06-26T14:12:20.149Z,34.31
2019-06-26T14:14:57.674Z,34.61
2019-06-26T14:17:30.516Z,35.43
2019-06-26T14:20:02.836Z,36.20
2019-06-26T14:22:35.132Z,35.22
2019-06-26T14:25:07.745Z,35.92
2019-06-26T14:27:40.204Z,35.76
2019-06-26T14:30:14.660Z,34.47
2019-06-26T14:32:47.147Z,35.21
2019-06-26T14:35:19.404Z,34.42
2019-06-26T14:37:52.998Z,34.60
2019-06-26T14:40:25.272Z,34.74
2019-06-26T14:42:57.514Z,34.84
2019-06-26T14:45:29.855Z,34.52
2019-06-26T14:48:03.396Z,34.91
2019-06-26T14:50:35.835Z,34.55
2019-06-26T14:53:08.314Z,33.35
2019-06-26T14:55:42.430Z,34.07
2019-06-26T14:58:16.168Z,33.88
2019-06-26T15:00:48.450Z,34.01
2019-06-26T15:03:21.747Z,33.53
2019-06-26T15:05:54.148Z,33.87
2019-06-26T15:08:27.079Z,33.74
2019-06-26T15:11:00.541Z,33.98
2019-06-26T15:13:34.936Z,33.98
2019-06-26T15:16:07.948Z,33.48
2019-06-26T15:18:40.220Z,33.61
2019-06-26T15:21:12.556Z,33.97
2019-06-26T15:23:46.992Z,34.37
2019-06-26T15:26:19.264Z,35.01
2019-06-26T15:28:51.638Z,34.61
2019-06-26T15:31:26.467Z,34.29
2019-06-26T15:33:59.343Z,35.18
2019-06-26T15:36:34.381Z,35.46
2019-06-26T15:39:09.451Z,35.20
2019-06-26T15:41:41.878Z,35.47
2019-06-26T15:44:14.310Z,36.10
2019-06-26T15:46:46.608Z,36.72
2019-06-26T15:49:18.876Z,36.72
2019-06-26T15:51:52.396Z,36.59
2019-06-26T15:54:24.823Z,36.15
2019-06-26T15:56:57.245Z,37.28
2019-06-26T15:59:31.140Z,37.32
2019-06-26T16:02:03.688Z,37.65
2019-06-26T16:04:36.009Z,37.68
2019-06-26T16:07:08.267Z,37.09
2019-06-26T16:09:40.560Z,38.84
2019-06-26T16:12:12.872Z,39.08
2019-06-26T16:14:45.491Z,39.42
2019-06-26T16:17:30.548Z,39.12
2019-06-26T16:20:02.852Z,39.95
2019-06-26T16:22:35.142Z,40.11
2019-06-26T16:25:07.814Z,40.07
2019-06-26T16:27:40.132Z,39.32
2019-06-26T16:30:16.223Z,40.21
2019-06-26T16:32:48.491Z,40.42
2019-06-26T16:35:21.307Z,40.36
2019-06-26T16:37:53.805Z,39.94
2019-06-26T16:40:26.752Z,40.63
2019-06-26T16:42:59.018Z,40.76
2019-06-26T16:45:32.128Z,41.27
2019-06-26T16:48:04.500Z,40.76
2019-06-26T16:50:38.427Z,41.14
2019-06-26T16:53:12.732Z,41.11
2019-06-26T16:55:46.268Z,41.20
2019-06-26T16:58:19.522Z,41.07
2019-06-26T17:00:53.133Z,41.97
2019-06-26T17:03:25.363Z,42.05
2019-06-26T17:05:57.643Z,41.83
2019-06-26T17:08:30.642Z,42.47
2019-06-26T17:11:07.114Z,43.15
2019-06-26T17:13:42.003Z,43.25
2019-06-26T17:16:14.251Z,42.60
2019-06-26T17:18:46.551Z,43.44
2019-06-26T17:21:18.795Z,43.44
2019-06-26T17:23:52.137Z,43.68
2019-06-26T17:26:24.545Z,42.68
2019-06-26T17:28:56.943Z,43.07
2019-06-26T17:31:29.570Z,43.16
2019-06-26T17:34:01.838Z,43.11
2019-06-26T17:36:34.116Z,43.89
2019-06-26T17:39:07.392Z,43.84
2019-06-26T17:41:39.770Z,43.66
2019-06-26T17:44:12.054Z,43.97
2019-06-26T17:46:44.325Z,44.61
2019-06-26T17:49:16.686Z,44.53
2019-06-26T17:51:49.052Z,44.73
2019-06-26T17:54:21.433Z,45.06
2019-06-26T17:56:54.478Z,45.53
2019-06-26T17:59:26.728Z,45.99
2019-06-26T18:02:00.505Z,46.49
2019-06-26T18:04:40.453Z,45.95
2019-06-26T18:07:12.720Z,46.28
2019-06-26T18:09:45.010Z,46.08
2019-06-26T18:12:17.232Z,46.49
2019-06-26T18:14:49.872Z,46.86
2019-06-26T18:17:22.794Z,47.04
2019-06-26T18:19:56.352Z,47.37
2019-06-26T18:22:28.673Z,47.27
2019-06-26T18:25:01.030Z,47.38
2019-06-26T18:27:33.409Z,47.60
2019-06-26T18:30:10.297Z,47.69
2019-06-26T18:32:44.243Z,47.94
2019-06-26T18:35:16.649Z,48.23
2019-06-26T18:37:49.067Z,48.18
2019-06-26T18:40:22.320Z,48.73
2019-06-26T18:42:54.741Z,48.48
2019-06-26T18:45:27.058Z,48.31
2019-06-26T18:47:59.471Z,48.52
2019-06-26T18:50:31.791Z,48.97
2019-06-26T18:53:04.150Z,49.14
2019-06-26T18:55:36.486Z,49.57
2019-06-26T18:58:08.878Z,50.01
2019-06-26T19:00:41.481Z,50.22
2019-06-26T19:03:13.769Z,50.44
2019-06-26T19:05:46.088Z,51.30
2019-06-26T19:08:18.514Z,50.93
2019-06-26T19:10:51.447Z,50.80
2019-06-26T19:13:24.686Z,50.85
2019-06-26T19:15:57.219Z,50.96
2019-06-26T19:18:29.612Z,50.95
2019-06-26T19:21:01.953Z,50.91
2019-06-26T19:23:34.291Z,51.11
2019-06-26T19:26:07.351Z,51.33
2019-06-26T19:28:40.240Z,51.69
2019-06-26T19:31:12.612Z,51.74
2019-06-26T19:33:45.741Z,51.77
2019-06-26T19:36:18.245Z,51.86
2019-06-26T19:38:50.614Z,51.86
2019-06-26T19:41:23.091Z,52.21
2019-06-26T19:43:55.482Z,52.32
2019-06-26T19:46:27.932Z,51.98
2019-06-26T19:49:00.303Z,51.69
2019-06-26T19:51:32.691Z,51.78
2019-06-26T19:54:04.987Z,51.46
2019-06-26T19:56:37.403Z,51.53
2019-06-26T19:59:10.279Z,51.54
2019-06-26T20:01:43.901Z,51.71
2019-06-26T20:04:16.174Z,51.13
2019-06-26T20:06:48.601Z,51.12
2019-06-26T20:09:21.079Z,50.63
2019-06-26T20:11:53.600Z,50.53
2019-06-26T20:14:25.999Z,50.71
2019-06-26T20:16:58.613Z,50.92
2019-06-26T20:19:32.188Z,50.60
2019-06-26T20:22:04.688Z,50.50
2019-06-26T20:24:44.141Z,50.36
2019-06-26T20:27:17.272Z,50.52
2019-06-26T20:29:49.602Z,50.36
2019-06-26T20:32:21.928Z,50.36
2019-06-26T20:34:54.507Z,50.41
2019-06-26T20:37:26.886Z,50.48
2019-06-26T20:39:59.232Z,50.69
2019-06-26T20:42:31.597Z,50.71
2019-06-26T20:45:05.628Z,50.87
2019-06-26T20:47:38.113Z,50.93
2019-06-26T20:50:10.541Z,50.64
2019-06-26T20:52:42.936Z,50.39
2019-06-26T20:55:15.266Z,50.55
2019-06-26T20:57:47.557Z,50.46
2019-06-26T21:00:22.445Z,50.40
2019-06-26T21:02:55.380Z,50.34
2019-06-26T21:05:29.072Z,50.08
2019-06-26T21:08:01.562Z,49.95
2019-06-26T21:10:38.095Z,49.94
2019-06-26T21:13:12.040Z,49.86
2019-06-26T21:15:44.489Z,50.04
2019-06-26T21:18:16.859Z,50.32
2019-06-26T21:20:49.264Z,50.26
2019-06-26T21:23:23.519Z,50.73
2019-06-26T21:25:56.139Z,50.36
2019-06-26T21:28:29.987Z,50.48
2019-06-26T21:31:02.244Z,50.42
2019-06-26T21:33:34.588Z,50.47
2019-06-26T21:36:06.872Z,50.69
2019-06-26T21:38:39.094Z,50.81
2019-06-26T21:41:11.362Z,50.87
2019-06-26T21:43:43.589Z,50.96
2019-06-26T21:46:15.934Z,51.02
2019-06-26T21:48:48.203Z,51.22
2019-06-26T21:51:21.245Z,51.16
2019-06-26T21:53:53.577Z,51.17
2019-06-26T21:56:25.830Z,51.27
2019-06-26T21:58:58.076Z,51.47
2019-06-26T22:01:30.527Z,51.75
2019-06-26T22:04:03.645Z,51.93
2019-06-26T22:06:36.022Z,52.25
2019-06-26T22:09:08.602Z,52.46
2019-06-26T22:11:40.924Z,52.58
2019-06-26T22:14:13.273Z,52.66
2019-06-26T22:16:45.532Z,52.75
2019-06-26T22:19:17.779Z,52.88
2019-06-26T22:21:50.004Z,52.99
2019-06-26T22:24:22.415Z,53.32
2019-06-26T22:26:54.695Z,53.47
2019-06-26T22:29:27.950Z,53.63
2019-06-26T22:32:00.309Z,53.77
2019-06-26T22:34:32.533Z,53.92
2019-06-26T22:37:04.851Z,54.06
2019-06-26T22:39:37.114Z,54.08
2019-06-26T22:42:09.412Z,54.19
2019-06-26T22:44:41.719Z,54.25
2019-06-26T22:47:13.953Z,54.28
2019-06-26T22:49:46.168Z,54.27
2019-06-26T22:52:18.736Z,54.29
2019-06-26T22:54:51.027Z,54.58
2019-06-26T22:57:23.508Z,54.64
2019-06-26T22:59:55.805Z,54.46
2019-06-26T23:02:28.236Z,54.22
2019-06-26T23:05:00.792Z,54.50
2019-06-26T23:07:33.244Z,54.67
2019-06-26T23:10:06.551Z,54.73
2019-06-26T23:12:38.804Z,54.80
2019-06-26T23:15:13.349Z,55.06
2019-06-26T23:17:45.600Z,55.25
2019-06-26T23:20:18.127Z,55.41
2019-06-26T23:22:50.483Z,55.47
2019-06-26T23:25:22.917Z,55.59
2019-06-26T23:27:55.208Z,55.75
2019-06-26T23:30:29.444Z,55.97
2019-06-26T23:33:01.726Z,55.99
2019-06-26T23:35:33.983Z,56.11
2019-06-26T23:38:06.253Z,56.11
2019-06-26T23:40:38.418Z,56.25
2019-06-26T23:43:10.740Z,56.46
2019-06-26T23:45:43.660Z,56.64
2019-06-26T23:48:15.875Z,56.81
2019-06-26T23:50:48.247Z,56.86
2019-06-26T23:53:20.599Z,56.81
2019-06-26T23:55:56.222Z,56.90
2019-06-26T23:58:28.562Z,56.82
